CheckWX is a tool to help pilots better visualize weather data.  It is not intended as a substitute for an official pre-flight weather briefing.

14:49:45 UTC

KLUK TAF
Cincinnati Municipal Lunken Field Airport
Cincinnati, Ohio, USA
KLUK 231129Z 2312/2412 33005KT P6SM SKC FM232200 VRB03KT P6SM SCT250 FM240700 14005KT P6SM BKN120

Mar-23@
12:00 UTC

Mar-23 @ 12:00 UTC

Mar-23@
22:00 UTC

Mar-23 @ 22:00 UTC

KLUK 231129Z 2312/2412 33005KT P6SM SKC
Wind
  • 330° at 5 KTS
Cloud Levels
  • Clear skies

Mar-23@
22:00 UTC

Mar-23 @ 22:00 UTC

Mar-24@
07:00 UTC

Mar-24 @ 07:00 UTC

FM232200 VRB03KT P6SM SCT250

From

From Standard forecast or significant change

Wind
  • Variable at 3 KTS
Cloud Levels
  • Scattered at 25,000' AGL

Mar-24@
07:00 UTC

Mar-24 @ 07:00 UTC

Mar-24@
12:00 UTC

Mar-24 @ 12:00 UTC

FM240700 14005KT P6SM BKN120

From

From Standard forecast or significant change

Wind
  • 140° at 5 KTS
Cloud Levels
  • Broken at 12,000' AGL